Time;durP1;ratioP1;P1;durP2;ratioP2;P2;SDS_P1;SDS_P2;PMS_P1;PMS_P2;Temp;Humidity;BMP_temperature;BMP_pressure;BME280_temperature;BME280_humidity;BME280_pressure;Samples;Min_cycle;Max_cycle;Signal;HPM_P1;HPM_P2
2022/01/19 00:00:32;;;;;;;15.32;7.25;;;4.50;67.90;;;;;;5044835;28;20037;-74
2022/01/19 00:02:58;;;;;;;16.50;8.30;;;4.50;68.00;;;;;;5041040;28;20029;-75
2022/01/19 00:05:23;;;;;;;15.38;7.63;;;4.50;68.10;;;;;;5044330;28;20408;-74
2022/01/19 00:07:49;;;;;;;13.55;7.88;;;4.40;68.10;;;;;;5037899;28;20021;-75
2022/01/19 00:10:19;;;;;;;13.48;8.30;;;4.40;68.30;;;;;;5050306;28;20572;-75
2022/01/19 00:12:45;;;;;;;15.60;8.00;;;4.40;68.30;;;;;;5041001;28;20501;-75
2022/01/19 00:15:11;;;;;;;13.77;7.13;;;4.30;68.40;;;;;;5038926;28;20030;-75
2022/01/19 00:17:37;;;;;;;12.75;8.10;;;4.30;68.40;;;;;;5047064;28;20025;-75
2022/01/19 00:20:05;;;;;;;14.95;8.23;;;4.30;68.50;;;;;;5048912;28;20044;-74
2022/01/19 00:22:31;;;;;;;15.52;8.10;;;4.30;68.60;;;;;;5043023;28;20054;-74
2022/01/19 00:24:56;;;;;;;14.75;7.65;;;4.20;68.60;;;;;;5052543;28;20098;-75
2022/01/19 00:27:22;;;;;;;15.25;7.88;;;4.20;69.30;;;;;;5042005;28;20025;-74
2022/01/19 00:29:47;;;;;;;15.55;7.95;;;4.20;68.60;;;;;;5042155;28;20048;-75
2022/01/19 00:32:13;;;;;;;14.38;7.63;;;4.20;68.60;;;;;;5045314;28;20026;-75
2022/01/19 00:34:39;;;;;;;13.88;7.78;;;4.20;68.50;;;;;;5052433;28;20025;-75
2022/01/19 00:37:04;;;;;;;19.10;8.75;;;4.10;68.40;;;;;;5040382;28;20029;-75
2022/01/19 00:39:32;;;;;;;13.65;8.00;;;4.10;68.50;;;;;;5047277;28;20102;-75
2022/01/19 00:41:59;;;;;;;12.50;7.43;;;4.10;68.50;;;;;;5047468;28;20032;-75
2022/01/19 00:44:25;;;;;;;12.85;7.60;;;4.10;68.60;;;;;;5047473;28;20113;-75
2022/01/19 00:46:51;;;;;;;14.38;8.38;;;4.00;68.60;;;;;;5045934;28;20454;-75
2022/01/19 00:49:16;;;;;;;16.13;8.45;;;4.00;68.60;;;;;;5048407;28;20079;-75
2022/01/19 00:51:42;;;;;;;15.73;7.50;;;4.00;68.70;;;;;;5045750;28;20031;-75
2022/01/19 00:54:08;;;;;;;15.27;7.60;;;3.90;68.70;;;;;;5049683;28;20121;-75
2022/01/19 00:56:34;;;;;;;13.00;7.90;;;3.90;68.80;;;;;;5040132;28;20033;-75
2022/01/19 00:59:00;;;;;;;15.93;8.55;;;3.90;68.80;;;;;;5047423;28;20045;-75
2022/01/19 01:01:26;;;;;;;19.00;8.90;;;3.90;68.60;;;;;;5040911;28;20040;-75
2022/01/19 01:03:52;;;;;;;20.38;9.73;;;3.80;68.60;;;;;;5054354;28;20033;-75
2022/01/19 01:06:19;;;;;;;17.42;8.65;;;3.80;68.70;;;;;;5053072;28;20017;-75
2022/01/19 01:08:45;;;;;;;14.70;8.23;;;3.70;68.80;;;;;;5040644;28;20037;-75
2022/01/19 01:11:10;;;;;;;16.50;8.73;;;3.70;68.80;;;;;;5048536;28;20040;-75
2022/01/19 01:16:34;;;;;;;12.75;8.75;;;3.60;68.80;;;;;;5046901;28;20087;-75
2022/01/19 01:19:03;;;;;;;15.48;8.88;;;3.90;69.00;;;;;;5043392;28;20056;-75
2022/01/19 01:21:29;;;;;;;19.80;9.35;;;3.60;68.90;;;;;;5035748;28;20044;-75
2022/01/19 01:23:54;;;;;;;18.33;10.30;;;3.70;69.10;;;;;;5034180;28;20045;-75
2022/01/19 01:26:20;;;;;;;16.20;9.50;;;3.70;69.10;;;;;;5043658;28;20056;-75
2022/01/19 01:28:46;;;;;;;18.20;10.30;;;3.50;69.10;;;;;;5034234;28;20029;-74
2022/01/19 01:31:12;;;;;;;18.23;10.43;;;3.50;69.20;;;;;;5044752;28;20045;-75
2022/01/19 01:33:38;;;;;;;17.52;8.88;;;3.40;69.20;;;;;;5035671;28;20021;-74
2022/01/19 01:36:05;;;;;;;22.85;9.52;;;3.40;69.30;;;;;;5034838;28;20029;-75
2022/01/19 01:38:31;;;;;;;17.25;10.38;;;3.40;69.40;;;;;;5035378;28;20034;-75
2022/01/19 01:40:57;;;;;;;16.63;9.82;;;3.40;69.30;;;;;;5034020;28;20092;-75
2022/01/19 01:43:22;;;;;;;16.92;9.18;;;3.60;69.40;;;;;;5044052;28;20055;-74
2022/01/19 01:45:53;;;;;;;18.25;8.85;;;3.40;69.30;;;;;;5035317;28;20488;-75
2022/01/19 01:48:22;;;;;;;18.55;9.25;;;3.30;69.30;;;;;;5047244;28;20021;-75
2022/01/19 01:53:34;;;;;;;15.73;8.15;;;3.30;69.40;;;;;;5036809;28;20089;-75
2022/01/19 01:56:07;;;;;;;16.33;8.43;;;3.30;69.30;;;;;;5034759;28;20037;-75
2022/01/19 01:58:39;;;;;;;16.13;9.55;;;3.20;69.30;;;;;;5040859;28;20053;-75
2022/01/19 02:01:06;;;;;;;15.40;8.77;;;3.20;69.40;;;;;;5035598;28;20029;-75
2022/01/19 02:03:38;;;;;;;17.48;9.18;;;3.20;69.40;;;;;;5034152;28;20390;-75
2022/01/19 02:08:46;;;;;;;24.80;10.55;;;3.10;69.60;;;;;;5038525;28;20037;-75
2022/01/19 02:16:53;;;;;;;30.15;12.80;;;3.00;69.90;;;;;;5034421;28;20040;-75
2022/01/19 02:22:03;;;;;;;19.90;9.60;;;3.00;69.70;;;;;;5038355;28;20389;-75
2022/01/19 02:24:43;;;;;;;13.63;7.75;;;3.00;70.00;;;;;;5053486;28;20032;-75
2022/01/19 02:28:56;;;;;;;15.13;7.07;;;3.00;70.00;;;;;;5041817;28;20043;-74
2022/01/19 02:40:50;;;;;;;13.35;7.72;;;2.90;70.10;;;;;;5036314;28;20517;-75
2022/01/19 02:43:24;;;;;;;13.63;7.57;;;2.90;70.00;;;;;;5045922;28;20017;-75
2022/01/19 02:51:19;;;;;;;8.98;5.25;;;2.80;69.80;;;;;;5045149;28;20103;-75
2022/01/19 02:53:45;;;;;;;15.15;7.30;;;2.80;69.70;;;;;;5042918;28;20033;-75
2022/01/19 02:56:17;;;;;;;13.30;8.02;;;2.70;69.70;;;;;;5044417;28;20036;-75
2022/01/19 02:58:50;;;;;;;17.30;7.90;;;2.70;69.60;;;;;;5042073;28;20423;-75
2022/01/19 03:09:23;;;;;;;12.88;7.10;;;2.60;69.90;;;;;;5045656;28;20035;-75
2022/01/19 03:11:49;;;;;;;13.57;6.82;;;2.60;69.90;;;;;;5034763;28;20094;-75
2022/01/19 03:14:17;;;;;;;12.52;6.85;;;2.80;70.20;;;;;;5043361;28;20028;-75
2022/01/19 03:16:43;;;;;;;12.20;6.93;;;2.50;70.00;;;;;;5040096;28;20029;-75
2022/01/19 03:19:11;;;;;;;14.15;7.07;;;2.50;70.00;;;;;;5036269;28;20044;-75
2022/01/19 03:21:37;;;;;;;12.20;6.90;;;2.50;69.90;;;;;;5039259;28;20025;-75
2022/01/19 03:24:04;;;;;;;12.82;6.97;;;2.50;70.00;;;;;;5045975;28;20028;-74
2022/01/19 03:26:30;;;;;;;12.27;7.40;;;2.40;69.90;;;;;;5037131;28;20024;-75
2022/01/19 03:28:55;;;;;;;9.98;6.80;;;2.40;70.10;;;;;;5039249;28;20029;-75
2022/01/19 03:31:21;;;;;;;17.08;7.70;;;2.60;70.30;;;;;;5046752;28;20033;-75
2022/01/19 03:33:47;;;;;;;20.15;7.85;;;2.50;70.40;;;;;;5040478;28;20040;-75
2022/01/19 03:36:13;;;;;;;12.27;7.55;;;2.40;70.50;;;;;;5039916;28;20355;-75
2022/01/19 03:38:38;;;;;;;11.20;6.80;;;2.40;70.40;;;;;;5033654;28;20103;-75
2022/01/19 03:41:04;;;;;;;13.80;7.82;;;2.50;70.50;;;;;;5034470;28;20082;-75
2022/01/19 03:43:30;;;;;;;15.48;7.70;;;2.30;70.40;;;;;;5038930;28;20025;-75
2022/01/19 03:45:58;;;;;;;16.77;7.75;;;2.50;70.60;;;;;;5035620;28;20044;-75
2022/01/19 03:48:43;;;;;;;18.30;8.98;;;2.30;70.60;;;;;;5041996;28;20386;-75
2022/01/19 03:51:09;;;;;;;15.52;7.75;;;2.30;70.60;;;;;;5042795;28;20112;-75
2022/01/19 03:53:35;;;;;;;13.65;7.50;;;2.30;70.70;;;;;;5040549;28;20029;-74
2022/01/19 03:56:01;;;;;;;16.15;7.25;;;2.30;70.70;;;;;;5043293;28;20128;-75
2022/01/19 03:58:27;;;;;;;16.63;7.60;;;2.30;70.80;;;;;;5041059;28;20124;-75
2022/01/19 04:00:55;;;;;;;14.98;8.10;;;2.20;70.80;;;;;;5044327;28;20041;-75
2022/01/19 04:06:22;;;;;;;14.70;7.63;;;2.40;70.80;;;;;;5035437;28;20477;-75
2022/01/19 04:08:48;;;;;;;18.45;7.05;;;2.50;70.80;;;;;;5048227;28;20029;-75
2022/01/19 04:11:16;;;;;;;18.52;7.55;;;2.50;70.90;;;;;;5047064;28;20036;-75
2022/01/19 04:14:21;;;;;;;13.00;6.47;;;2.20;70.80;;;;;;5048188;28;20032;-75
2022/01/19 04:16:31;;;;;;;15.18;7.80;;;2.30;70.90;;;;;;5041034;28;20025;-75
2022/01/19 04:19:09;;;;;;;14.63;7.88;;;2.20;70.90;;;;;;5038347;28;20022;-74
2022/01/19 04:21:35;;;;;;;14.00;7.10;;;2.20;70.90;;;;;;5040650;28;20040;-75
2022/01/19 04:24:00;;;;;;;14.50;7.10;;;2.20;71.00;;;;;;5052312;28;20033;-75
2022/01/19 04:26:26;;;;;;;14.27;7.55;;;2.20;71.00;;;;;;5047350;28;20025;-75
2022/01/19 04:28:52;;;;;;;11.93;6.90;;;2.20;71.10;;;;;;5047079;28;20112;-75
2022/01/19 04:31:17;;;;;;;11.60;6.82;;;2.20;71.10;;;;;;5038867;28;20104;-75
2022/01/19 04:33:44;;;;;;;15.48;7.60;;;2.20;71.20;;;;;;5043788;28;20108;-75
2022/01/19 04:36:28;;;;;;;17.77;7.90;;;2.30;71.30;;;;;;5039542;28;20086;-75
2022/01/19 05:04:26;;;;;;;13.73;7.80;;;2.40;71.40;;;;;;5047309;28;20066;-75
2022/01/19 05:06:25;;;;;;;17.95;7.55;;;2.40;71.50;;;;;;5039734;28;20041;-74
2022/01/19 05:09:04;;;;;;;14.85;7.97;;;2.50;71.60;;;;;;5048874;28;20083;-75
2022/01/19 05:14:14;;;;;;;18.42;8.63;;;2.50;71.70;;;;;;5049155;28;20417;-75
2022/01/19 05:16:40;;;;;;;13.90;8.93;;;2.50;71.60;;;;;;5049633;28;20017;-75
2022/01/19 05:19:06;;;;;;;14.50;8.85;;;2.50;71.40;;;;;;5046897;28;20021;-75
2022/01/19 05:21:31;;;;;;;16.20;8.90;;;2.50;71.70;;;;;;5049650;28;20466;-74
2022/01/19 05:24:03;;;;;;;20.20;9.13;;;2.50;71.80;;;;;;5046267;28;20029;-74
2022/01/19 05:26:29;;;;;;;16.50;9.23;;;2.60;71.90;;;;;;5039684;28;20029;-74
2022/01/19 05:28:54;;;;;;;16.63;8.43;;;2.60;72.00;;;;;;5039096;28;20140;-74
2022/01/19 05:31:20;;;;;;;23.40;9.32;;;2.60;72.10;;;;;;5047889;28;20041;-74
2022/01/19 05:33:45;;;;;;;21.73;9.23;;;2.60;72.20;;;;;;5048723;28;20056;-75
2022/01/19 05:36:11;;;;;;;18.63;9.35;;;2.70;72.30;;;;;;5048231;28;20032;-75
2022/01/19 05:38:37;;;;;;;21.02;9.82;;;2.70;72.20;;;;;;5046267;28;20056;-75
2022/01/19 05:41:02;;;;;;;19.73;9.85;;;2.70;72.20;;;;;;5041628;28;20036;-74
2022/01/19 05:43:28;;;;;;;17.67;10.15;;;2.80;72.20;;;;;;5041038;28;20025;-74
2022/01/19 05:45:54;;;;;;;13.43;8.73;;;2.80;72.20;;;;;;5048765;28;20035;-75
2022/01/19 05:48:20;;;;;;;17.08;9.35;;;2.80;72.20;;;;;;5037599;28;20022;-75
2022/01/19 05:50:46;;;;;;;19.70;9.13;;;2.90;72.40;;;;;;5039797;28;20119;-75
2022/01/19 05:53:13;;;;;;;22.15;10.02;;;2.90;72.00;;;;;;5039211;28;20443;-74
2022/01/19 05:55:38;;;;;;;16.23;9.40;;;2.90;72.00;;;;;;5049267;28;20025;-74
2022/01/19 05:58:04;;;;;;;19.05;9.73;;;3.00;72.10;;;;;;5042458;28;20466;-75
2022/01/19 06:00:30;;;;;;;24.13;10.93;;;3.00;72.10;;;;;;5041886;28;20037;-75
2022/01/19 06:02:56;;;;;;;16.88;10.32;;;3.00;72.10;;;;;;5041045;28;20035;-75
2022/01/19 06:05:21;;;;;;;18.40;10.57;;;3.20;72.20;;;;;;5040175;28;20116;-74
2022/01/19 06:07:48;;;;;;;17.80;11.20;;;3.10;72.10;;;;;;5051444;28;20048;-75
2022/01/19 06:13:00;;;;;;;18.55;10.40;;;3.20;72.10;;;;;;5044733;28;20520;-74
2022/01/19 06:15:26;;;;;;;20.27;10.60;;;3.30;72.00;;;;;;5038906;28;20029;-74
2022/01/19 06:17:51;;;;;;;15.35;10.07;;;3.20;72.00;;;;;;5039436;28;20021;-75
2022/01/19 06:20:17;;;;;;;20.02;10.95;;;3.20;72.00;;;;;;5035006;28;20038;-74
2022/01/19 06:22:43;;;;;;;23.10;11.45;;;3.20;72.00;;;;;;5043715;28;20860;-75
2022/01/19 06:25:08;;;;;;;23.10;11.90;;;3.20;72.00;;;;;;5048244;28;20025;-75
2022/01/19 06:27:34;;;;;;;21.48;12.32;;;3.30;72.00;;;;;;5041957;28;20025;-75
2022/01/19 06:30:00;;;;;;;20.20;12.45;;;3.30;72.00;;;;;;5043916;28;20138;-75
2022/01/19 06:32:25;;;;;;;20.65;12.75;;;3.30;72.00;;;;;;5044631;28;20025;-75
2022/01/19 06:34:51;;;;;;;20.30;13.38;;;3.30;71.90;;;;;;5048698;28;20036;-75
2022/01/19 06:37:17;;;;;;;19.05;12.40;;;3.40;71.90;;;;;;5039948;28;20024;-75
2022/01/19 06:39:42;;;;;;;23.90;14.10;;;3.40;71.90;;;;;;5041848;28;21322;-75
2022/01/19 06:42:08;;;;;;;26.85;15.05;;;3.40;71.90;;;;;;5047129;28;20044;-75
2022/01/19 06:44:34;;;;;;;20.98;13.15;;;3.40;71.80;;;;;;5042230;28;20045;-75
2022/01/19 06:46:59;;;;;;;28.52;16.45;;;3.40;71.70;;;;;;5037690;28;20130;-74
2022/01/19 06:49:25;;;;;;;25.00;15.30;;;3.40;71.80;;;;;;5048047;28;20529;-75
2022/01/19 06:51:51;;;;;;;25.98;14.50;;;3.40;71.60;;;;;;5042916;28;20025;-75
2022/01/19 06:54:16;;;;;;;25.60;14.30;;;3.40;71.70;;;;;;5045209;28;20032;-74
2022/01/19 06:56:42;;;;;;;25.13;14.00;;;3.40;71.50;;;;;;5044959;28;20021;-75
2022/01/19 06:59:08;;;;;;;28.60;14.88;;;3.40;71.60;;;;;;5038769;28;20073;-75
2022/01/19 07:01:34;;;;;;;26.67;14.30;;;3.40;71.60;;;;;;5037691;28;20025;-75
2022/01/19 07:04:01;;;;;;;26.92;15.15;;;3.40;71.70;;;;;;5040488;28;20034;-75
2022/01/19 07:06:27;;;;;;;23.88;14.02;;;3.40;71.50;;;;;;5046285;28;20017;-75
2022/01/19 07:08:53;;;;;;;24.42;14.80;;;3.40;71.60;;;;;;5035249;28;20386;-75
2022/01/19 07:11:18;;;;;;;29.25;16.02;;;3.40;71.40;;;;;;5036519;28;20032;-74
2022/01/19 07:13:44;;;;;;;29.20;14.32;;;3.60;71.80;;;;;;5038715;28;20025;-74
2022/01/19 07:16:09;;;;;;;26.13;14.32;;;3.40;71.70;;;;;;5045406;28;20044;-75
2022/01/19 07:18:35;;;;;;;24.23;13.73;;;3.40;71.80;;;;;;5038346;28;20042;-73
2022/01/19 07:21:01;;;;;;;23.67;14.63;;;3.40;71.80;;;;;;5034583;28;20029;-70
2022/01/19 07:23:26;;;;;;;24.10;14.85;;;3.60;71.90;;;;;;5040384;28;20112;-71
2022/01/19 07:25:52;;;;;;;27.05;14.57;;;3.40;72.00;;;;;;5044055;28;20063;-70
2022/01/19 07:28:18;;;;;;;24.45;14.90;;;3.50;72.00;;;;;;5040455;28;20470;-70
2022/01/19 07:30:43;;;;;;;23.67;14.25;;;3.50;72.10;;;;;;5059349;28;20055;-70
2022/01/19 07:33:09;;;;;;;25.73;14.32;;;3.50;72.10;;;;;;5062106;28;20029;-70
2022/01/19 07:35:35;;;;;;;23.80;13.05;;;3.50;72.10;;;;;;5042333;28;20029;-70
2022/01/19 07:38:00;;;;;;;24.10;13.88;;;3.60;72.00;;;;;;5045594;28;20021;-69
2022/01/19 07:40:26;;;;;;;27.58;14.35;;;3.60;71.80;;;;;;5041091;28;20489;-70
2022/01/19 07:42:52;;;;;;;23.20;14.15;;;3.60;71.80;;;;;;5033402;28;20032;-70
2022/01/19 07:45:18;;;;;;;25.73;14.10;;;3.60;71.80;;;;;;5042826;28;20033;-70
2022/01/19 07:47:43;;;;;;;25.35;13.68;;;3.60;71.80;;;;;;5032476;28;20025;-69
2022/01/19 07:50:10;;;;;;;20.17;12.27;;;3.70;71.90;;;;;;5038771;28;20088;-70
2022/01/19 07:52:35;;;;;;;20.90;13.43;;;3.70;71.70;;;;;;5035123;28;20124;-72
2022/01/19 07:55:01;;;;;;;20.98;13.75;;;3.70;71.60;;;;;;5032117;28;20099;-70
2022/01/19 07:57:27;;;;;;;25.05;14.25;;;3.70;71.70;;;;;;5039932;28;20028;-70
2022/01/19 07:59:56;;;;;;;23.38;14.20;;;3.80;71.80;;;;;;5040006;28;20037;-70
2022/01/19 08:02:22;;;;;;;20.77;13.63;;;3.80;71.60;;;;;;5030917;28;20091;-70
2022/01/19 08:04:48;;;;;;;23.90;13.75;;;3.80;71.70;;;;;;5032542;28;20030;-70
2022/01/19 08:07:14;;;;;;;31.13;14.60;;;3.80;71.60;;;;;;5037836;28;20388;-70
2022/01/19 08:09:40;;;;;;;23.80;14.45;;;3.80;71.60;;;;;;5037745;28;20022;-70
2022/01/19 08:12:07;;;;;;;20.98;13.63;;;3.90;71.50;;;;;;5036064;28;20124;-70
2022/01/19 08:14:32;;;;;;;20.90;13.90;;;3.90;71.50;;;;;;5036477;28;20121;-70
2022/01/19 08:16:58;;;;;;;20.70;13.55;;;3.90;71.50;;;;;;5037244;28;20120;-70
2022/01/19 08:19:30;;;;;;;25.88;15.93;;;4.00;71.60;;;;;;5039722;28;20404;-70
2022/01/19 08:21:55;;;;;;;23.42;13.20;;;3.90;71.50;;;;;;5042789;28;20036;-70
2022/01/19 08:24:24;;;;;;;25.83;15.20;;;3.90;71.50;;;;;;5048124;28;20025;-69
2022/01/19 08:26:49;;;;;;;23.05;14.68;;;4.00;71.70;;;;;;5042793;28;20026;-70
2022/01/19 08:29:15;;;;;;;23.38;15.27;;;4.00;71.60;;;;;;5041693;28;20056;-69
2022/01/19 08:31:41;;;;;;;26.75;14.88;;;4.00;71.60;;;;;;5033272;28;20104;-69
2022/01/19 08:34:06;;;;;;;25.10;14.65;;;4.30;71.90;;;;;;5035948;28;20036;-69
2022/01/19 08:36:32;;;;;;;24.88;15.15;;;4.10;71.50;;;;;;5041348;28;20017;-69
2022/01/19 08:38:58;;;;;;;20.83;13.98;;;4.20;71.30;;;;;;5046030;28;20495;-69
2022/01/19 08:41:24;;;;;;;23.55;14.98;;;4.20;71.30;;;;;;5050259;28;20025;-69
2022/01/19 08:43:49;;;;;;;29.10;17.77;;;4.20;71.30;;;;;;5038213;28;20038;-69
2022/01/19 08:46:15;;;;;;;25.75;16.13;;;4.20;71.40;;;;;;5045975;28;20021;-69
2022/01/19 08:48:41;;;;;;;22.33;15.13;;;4.30;71.40;;;;;;5045116;28;20478;-69
2022/01/19 08:51:07;;;;;;;23.88;14.77;;;4.40;71.40;;;;;;5039513;28;20063;-69
2022/01/19 08:53:33;;;;;;;28.73;15.52;;;4.40;71.20;;;;;;5042658;28;20028;-69
2022/01/19 08:55:59;;;;;;;19.85;13.85;;;4.40;71.10;;;;;;5039931;28;20021;-69
2022/01/19 08:58:25;;;;;;;21.73;14.05;;;4.50;71.00;;;;;;5050603;28;20390;-69
2022/01/19 09:00:51;;;;;;;27.38;16.55;;;4.60;70.80;;;;;;5046520;28;20037;-68
2022/01/19 09:03:17;;;;;;;25.38;15.75;;;4.60;70.40;;;;;;5034863;28;20017;-69
2022/01/19 09:05:43;;;;;;;23.35;14.20;;;4.60;70.40;;;;;;5047195;28;20025;-69
2022/01/19 09:08:09;;;;;;;23.13;15.23;;;4.60;70.60;;;;;;5059491;28;20469;-68
2022/01/19 09:10:37;;;;;;;24.70;15.75;;;4.70;70.60;;;;;;5050289;28;20392;-69
2022/01/19 09:13:03;;;;;;;24.20;13.60;;;4.70;70.40;;;;;;5041280;28;20056;-68
2022/01/19 09:15:29;;;;;;;27.50;15.63;;;4.70;70.50;;;;;;5038378;28;20056;-69
2022/01/19 09:17:54;;;;;;;24.35;14.93;;;4.70;70.40;;;;;;5037256;28;20030;-69
2022/01/19 09:20:20;;;;;;;22.50;13.93;;;4.80;70.40;;;;;;5042756;28;20516;-69
2022/01/19 09:22:47;;;;;;;25.20;15.73;;;4.80;70.40;;;;;;5038700;28;21787;-70
2022/01/19 09:25:13;;;;;;;28.38;15.98;;;4.90;70.40;;;;;;5048240;28;20059;-69
2022/01/19 09:27:39;;;;;;;25.02;15.15;;;5.00;70.40;;;;;;5040837;28;20028;-68
2022/01/19 09:30:14;;;;;;;26.80;16.00;;;5.10;70.40;;;;;;5041987;28;20041;-69
2022/01/19 09:32:49;;;;;;;24.00;15.00;;;5.10;70.10;;;;;;5052186;28;20486;-69
2022/01/19 09:35:23;;;;;;;25.27;15.00;;;5.20;70.20;;;;;;5034556;28;20029;-69
2022/01/19 09:37:48;;;;;;;25.30;14.93;;;5.30;70.10;;;;;;5044317;28;20040;-69
2022/01/19 09:40:14;;;;;;;30.85;16.13;;;5.40;69.70;;;;;;5044949;28;20037;-69
2022/01/19 09:42:40;;;;;;;28.60;14.48;;;5.40;69.60;;;;;;5040424;28;20026;-69
2022/01/19 09:45:06;;;;;;;24.83;14.57;;;5.50;69.40;;;;;;5045936;28;20489;-69
2022/01/19 09:47:32;;;;;;;31.63;16.00;;;5.60;69.50;;;;;;5037790;28;20037;-69
2022/01/19 09:49:57;;;;;;;29.58;15.23;;;5.70;69.00;;;;;;5049593;28;20032;-69
2022/01/19 09:52:23;;;;;;;22.92;15.05;;;5.70;68.80;;;;;;5034414;28;20028;-69
2022/01/19 09:54:49;;;;;;;30.75;14.55;;;5.80;68.80;;;;;;5041988;28;20025;-69
2022/01/19 09:57:14;;;;;;;24.17;15.00;;;5.90;68.70;;;;;;5034497;28;20063;-69
2022/01/19 09:59:40;;;;;;;27.50;14.77;;;5.90;68.70;;;;;;5041542;28;20040;-69
2022/01/19 10:02:10;;;;;;;24.23;14.95;;;6.00;68.60;;;;;;5040034;28;20037;-69
2022/01/19 10:04:42;;;;;;;34.45;15.30;;;6.00;68.30;;;;;;5036625;28;20120;-70
2022/01/19 10:07:16;;;;;;;25.73;14.93;;;6.10;68.30;;;;;;5047475;28;20061;-69
2022/01/19 10:09:56;;;;;;;25.95;14.80;;;6.20;68.20;;;;;;5045917;28;20258;-69
2022/01/19 10:18:23;;;;;;;26.17;13.88;;;6.50;67.90;;;;;;5034488;28;20117;-69
2022/01/19 10:21:08;;;;;;;22.58;12.30;;;6.60;67.70;;;;;;5041916;28;20040;-69
2022/01/19 10:23:38;;;;;;;21.98;12.95;;;6.70;67.30;;;;;;5044489;28;20046;-69
2022/01/19 10:26:09;;;;;;;19.77;12.85;;;6.80;67.70;;;;;;5034780;28;20525;-69
2022/01/19 10:29:13;;;;;;;27.80;13.52;;;6.90;67.70;;;;;;5043438;28;20021;-69
2022/01/19 10:31:43;;;;;;;18.52;11.98;;;7.00;66.50;;;;;;5022456;28;20034;-69
2022/01/19 10:34:10;;;;;;;18.92;12.85;;;7.20;67.60;;;;;;5009523;28;20057;-69
2022/01/19 10:36:42;;;;;;;26.50;11.82;;;7.30;66.90;;;;;;5020840;28;20033;-69
2022/01/19 10:39:07;;;;;;;19.25;12.20;;;7.40;66.70;;;;;;5051890;28;20033;-70
2022/01/19 10:41:33;;;;;;;19.75;12.02;;;7.40;66.70;;;;;;5043500;28;20018;-69
2022/01/19 10:43:59;;;;;;;17.38;11.02;;;7.60;67.00;;;;;;5034541;28;20022;-69
2022/01/19 10:46:34;;;;;;;20.27;11.57;;;7.60;66.50;;;;;;5042747;28;20049;-70
2022/01/19 10:49:08;;;;;;;20.42;11.38;;;7.80;66.40;;;;;;5042977;28;20243;-70
2022/01/19 10:51:48;;;;;;;16.27;10.63;;;7.80;65.50;;;;;;5045783;28;20021;-70
2022/01/19 10:54:21;;;;;;;22.90;10.65;;;7.90;65.30;;;;;;5047973;28;20068;-70
2022/01/19 10:56:54;;;;;;;16.08;10.48;;;8.00;65.40;;;;;;5038515;28;20021;-70
2022/01/19 10:59:25;;;;;;;20.10;10.55;;;8.10;65.60;;;;;;5041427;28;20385;-70
2022/01/19 11:01:55;;;;;;;14.13;9.18;;;8.20;65.30;;;;;;5040071;28;20028;-69
2022/01/19 11:04:34;;;;;;;15.85;9.68;;;8.30;65.50;;;;;;5076129;28;20021;-71
2022/01/19 11:07:08;;;;;;;16.08;9.93;;;8.40;64.70;;;;;;5051524;28;20071;-71
2022/01/19 11:09:43;;;;;;;16.38;9.23;;;8.50;64.90;;;;;;5052751;28;20029;-71
2022/01/19 11:12:13;;;;;;;16.55;9.25;;;8.60;64.90;;;;;;5052810;28;20036;-72
2022/01/19 11:14:40;;;;;;;20.15;10.02;;;8.80;64.70;;;;;;5052990;28;20089;-72
2022/01/19 11:17:07;;;;;;;12.70;8.50;;;8.90;64.50;;;;;;5042634;28;20033;-71
2022/01/19 11:19:41;;;;;;;20.52;10.77;;;9.00;64.30;;;;;;5032665;28;20034;-72
2022/01/19 11:22:18;;;;;;;16.58;11.05;;;9.10;63.60;;;;;;5036352;28;20033;-72
2022/01/19 11:25:00;;;;;;;19.25;10.80;;;9.20;63.60;;;;;;5051458;28;20513;-72
2022/01/19 11:27:29;;;;;;;14.35;8.52;;;9.30;62.70;;;;;;5051441;28;20021;-72
2022/01/19 11:30:12;;;;;;;17.33;9.63;;;9.40;63.30;;;;;;5052379;28;20525;-72
2022/01/19 11:32:38;;;;;;;17.80;9.20;;;9.40;62.10;;;;;;5051174;28;20128;-72
2022/01/19 11:35:04;;;;;;;14.93;9.43;;;9.50;62.80;;;;;;5052602;28;20092;-72
2022/01/19 11:37:40;;;;;;;22.90;9.77;;;9.50;62.80;;;;;;5047854;28;20386;-72
2022/01/19 11:40:11;;;;;;;12.45;8.80;;;9.60;61.90;;;;;;5031235;28;20037;-72
2022/01/19 11:42:37;;;;;;;17.63;8.75;;;9.60;61.80;;;;;;5045645;28;20032;-72
2022/01/19 11:45:07;;;;;;;13.95;8.75;;;9.70;62.40;;;;;;5050796;28;20075;-72
2022/01/19 11:47:33;;;;;;;14.02;8.85;;;9.70;62.00;;;;;;5051128;28;20024;-72
2022/01/19 11:50:08;;;;;;;14.88;8.52;;;9.80;62.00;;;;;;5052699;28;20113;-72
2022/01/19 11:52:39;;;;;;;16.23;8.90;;;9.90;61.30;;;;;;5052446;28;20017;-72
2022/01/19 11:55:25;;;;;;;13.82;8.60;;;9.90;61.50;;;;;;5042905;28;20481;-72
2022/01/19 11:58:14;;;;;;;11.68;8.10;;;10.00;61.70;;;;;;5032827;28;20530;-72
2022/01/19 12:00:42;;;;;;;16.75;9.95;;;10.10;60.40;;;;;;5032003;28;20440;-72
2022/01/19 12:03:30;;;;;;;15.35;9.15;;;10.10;61.30;;;;;;5032460;28;20017;-72
2022/01/19 12:05:56;;;;;;;17.25;10.20;;;10.20;60.30;;;;;;5064282;28;20043;-72
2022/01/19 12:08:22;;;;;;;17.42;10.32;;;10.20;61.20;;;;;;5032596;28;20084;-72
2022/01/19 12:10:50;;;;;;;18.85;10.02;;;10.30;60.90;;;;;;5030998;28;20053;-72
2022/01/19 12:13:30;;;;;;;28.95;10.40;;;10.30;60.80;;;;;;5042476;28;20116;-72
2022/01/19 12:16:28;;;;;;;17.40;10.52;;;10.30;60.60;;;;;;5054571;28;20024;-72
2022/01/19 12:19:01;;;;;;;27.60;10.07;;;10.40;60.30;;;;;;5035949;28;20082;-72
2022/01/19 12:21:42;;;;;;;14.60;7.38;;;10.40;60.20;;;;;;5036409;28;20109;-72
2022/01/19 12:24:29;;;;;;;18.33;9.52;;;10.50;60.30;;;;;;5036286;28;20018;-72
2022/01/19 12:27:14;;;;;;;21.98;10.30;;;10.50;59.40;;;;;;5037023;28;20025;-72
2022/01/19 12:29:43;;;;;;;21.27;10.52;;;10.60;59.30;;;;;;5042957;28;20497;-72
2022/01/19 12:32:31;;;;;;;24.85;9.57;;;10.60;60.20;;;;;;5034683;28;20039;-72
2022/01/19 12:35:17;;;;;;;14.77;9.57;;;10.60;59.70;;;;;;5034425;28;20119;-72
2022/01/19 12:37:44;;;;;;;17.48;9.63;;;10.70;59.70;;;;;;5035979;28;20072;-72
2022/01/19 12:40:13;;;;;;;27.02;9.65;;;10.80;59.90;;;;;;5034513;28;20584;-72
2022/01/19 12:42:47;;;;;;;18.65;9.90;;;10.80;59.90;;;;;;5034575;28;20018;-72
2022/01/19 12:45:26;;;;;;;17.55;9.02;;;10.80;59.30;;;;;;5049832;28;20025;-72
2022/01/19 12:47:54;;;;;;;16.92;10.43;;;10.90;59.80;;;;;;5042525;28;20021;-73
2022/01/19 12:50:19;;;;;;;17.98;10.70;;;10.90;60.10;;;;;;5055530;28;20025;-72
2022/01/19 12:52:54;;;;;;;13.98;9.70;;;11.00;59.60;;;;;;5052764;28;20021;-72
2022/01/19 12:55:29;;;;;;;14.40;9.52;;;11.00;59.60;;;;;;5034234;28;20524;-72
2022/01/19 12:57:56;;;;;;;13.60;9.50;;;11.10;59.50;;;;;;5035380;28;20108;-72
2022/01/19 13:00:25;;;;;;;14.13;9.25;;;11.10;59.90;;;;;;5036202;28;20091;-72
2022/01/19 13:02:51;;;;;;;12.95;9.38;;;11.20;59.90;;;;;;5047636;28;20079;-72
2022/01/19 13:05:19;;;;;;;13.82;9.45;;;11.30;59.40;;;;;;5051450;28;20033;-72
2022/01/19 13:07:56;;;;;;;14.80;8.82;;;11.30;59.50;;;;;;5055143;28;20013;-72
2022/01/19 13:10:42;;;;;;;12.90;8.55;;;11.30;59.10;;;;;;5055280;28;20025;-72
2022/01/19 13:15:49;;;;;;;9.50;5.50;;;11.40;58.50;;;;;;5075177;28;20024;-72
2022/01/19 13:18:27;;;;;;;11.13;6.63;;;11.30;56.20;;;;;;5074901;28;20749;-72
2022/01/19 13:20:55;;;;;;;11.52;6.00;;;11.20;56.30;;;;;;5044106;28;20125;-72
2022/01/19 13:23:22;;;;;;;10.30;6.72;;;11.10;56.80;;;;;;5034820;28;20109;-72
2022/01/19 13:25:57;;;;;;;8.63;6.18;;;11.00;56.50;;;;;;5034893;28;20500;-72
2022/01/19 13:28:30;;;;;;;10.57;6.85;;;10.90;55.70;;;;;;5034665;28;20057;-72
2022/01/19 13:31:08;;;;;;;10.35;5.70;;;10.80;54.80;;;;;;5033429;28;20413;-72
2022/01/19 13:33:33;;;;;;;11.70;7.13;;;10.60;56.20;;;;;;5033462;28;20021;-72
2022/01/19 13:36:04;;;;;;;9.40;6.28;;;10.50;55.30;;;;;;5033382;28;20055;-73
2022/01/19 13:38:30;;;;;;;14.20;6.82;;;10.30;55.90;;;;;;5033365;28;20029;-72
2022/01/19 13:41:22;;;;;;;14.27;6.22;;;10.20;56.40;;;;;;5052516;28;20040;-72
2022/01/19 13:43:49;;;;;;;9.93;6.53;;;10.20;56.50;;;;;;5035184;28;20033;-72
2022/01/19 13:46:26;;;;;;;9.15;5.97;;;10.10;56.30;;;;;;5052932;28;20377;-72
2022/01/19 13:49:00;;;;;;;8.52;6.00;;;10.00;56.50;;;;;;5054437;28;20470;-72
2022/01/19 13:51:26;;;;;;;10.88;6.90;;;10.00;57.00;;;;;;5054542;28;20079;-73
2022/01/19 13:54:00;;;;;;;12.40;7.22;;;10.00;56.90;;;;;;5044111;28;20116;-72
2022/01/19 13:56:27;;;;;;;12.57;7.33;;;9.90;56.30;;;;;;5034873;28;20030;-72
2022/01/19 13:59:09;;;;;;;11.40;7.18;;;9.80;56.80;;;;;;5033195;28;20275;-72
2022/01/19 14:01:40;;;;;;;10.93;7.20;;;9.70;56.60;;;;;;5042536;28;20021;-72
2022/01/19 14:04:08;;;;;;;11.55;6.68;;;9.70;57.00;;;;;;5054044;28;20063;-72
2022/01/19 14:06:40;;;;;;;10.15;6.35;;;9.60;57.20;;;;;;5052649;28;20021;-73
2022/01/19 14:09:07;;;;;;;11.05;7.68;;;9.50;57.20;;;;;;5045396;28;20030;-72
2022/01/19 14:11:34;;;;;;;11.65;7.72;;;9.50;56.80;;;;;;5045454;28;20025;-72